createdAt,value
2018-07-15T00:00:06.986Z,2.96
2018-07-15T00:00:19.547Z,2.96
2018-07-15T00:00:31.978Z,2.96
2018-07-15T00:00:44.447Z,2.96
2018-07-15T00:00:56.867Z,2.96
2018-07-15T00:01:09.314Z,2.96
2018-07-15T00:01:21.748Z,2.96
2018-07-15T00:01:34.171Z,2.96
2018-07-15T00:01:46.679Z,2.96
2018-07-15T00:01:59.110Z,2.96
2018-07-15T00:02:11.536Z,2.96
2018-07-15T00:02:23.934Z,2.96
2018-07-15T00:02:36.352Z,2.96
2018-07-15T00:02:48.794Z,3.05
2018-07-15T00:03:01.211Z,3.05
2018-07-15T00:03:13.630Z,3.05
2018-07-15T00:03:26.061Z,3.05
2018-07-15T00:03:38.470Z,3.05
2018-07-15T00:03:50.885Z,3.05
2018-07-15T00:04:03.295Z,3.05
2018-07-15T00:04:15.732Z,3.05
2018-07-15T00:04:28.163Z,3.05
2018-07-15T00:04:40.576Z,3.05
2018-07-15T00:04:53.004Z,3.05
2018-07-15T00:05:05.467Z,3.05
2018-07-15T00:05:17.892Z,3.05
2018-07-15T00:05:30.299Z,3.05
2018-07-15T00:05:42.806Z,3.05
2018-07-15T00:05:55.208Z,3.05
2018-07-15T00:06:07.597Z,3.05
2018-07-15T00:06:20.004Z,3.05
2018-07-15T00:06:32.398Z,3.05
2018-07-15T00:06:44.809Z,3.05
2018-07-15T00:06:57.417Z,3.05
2018-07-15T00:07:09.813Z,3.05
2018-07-15T00:07:22.212Z,3.05
2018-07-15T00:07:34.626Z,3.05
2018-07-15T00:07:47.042Z,3.05
2018-07-15T00:07:59.447Z,3.05
2018-07-15T00:08:11.925Z,3.05
2018-07-15T00:08:24.315Z,3.05
2018-07-15T00:08:36.726Z,3.05
2018-07-15T00:08:49.133Z,3.05
2018-07-15T00:09:01.544Z,3.05
2018-07-15T00:09:13.937Z,3.05
2018-07-15T00:09:26.348Z,3.05
2018-07-15T00:09:38.741Z,3.05
2018-07-15T00:09:51.196Z,3.05
2018-07-15T00:10:03.590Z,3.05
2018-07-15T00:10:16.002Z,3.05
2018-07-15T00:10:28.402Z,3.05
2018-07-15T00:10:40.807Z,3.05
2018-07-15T00:10:53.206Z,3.05
2018-07-15T00:11:05.590Z,3.05
2018-07-15T00:11:18.044Z,3.05
2018-07-15T00:11:30.477Z,3.05
2018-07-15T00:11:42.883Z,3.05
2018-07-15T00:11:55.376Z,3.05
2018-07-15T00:12:07.822Z,3.05
2018-07-15T00:12:20.244Z,3.05
2018-07-15T00:12:32.673Z,3.05
2018-07-15T00:12:45.211Z,2.83
2018-07-15T00:12:57.785Z,2.83
2018-07-15T00:13:10.196Z,2.83
2018-07-15T00:13:22.655Z,2.83
2018-07-15T00:13:35.059Z,2.83
2018-07-15T00:13:47.472Z,2.83
2018-07-15T00:13:59.877Z,2.83
2018-07-15T00:14:12.306Z,2.83
2018-07-15T00:14:24.756Z,2.83
2018-07-15T00:14:37.142Z,2.83
2018-07-15T00:14:49.543Z,2.83
2018-07-15T00:15:01.945Z,2.83
2018-07-15T00:15:14.352Z,2.83
2018-07-15T00:15:26.771Z,2.83
2018-07-15T00:15:39.184Z,2.83
2018-07-15T00:15:51.624Z,2.83
2018-07-15T00:16:04.083Z,2.83
2018-07-15T00:16:16.504Z,2.83
2018-07-15T00:16:28.906Z,2.83
2018-07-15T00:16:41.321Z,2.83
2018-07-15T00:16:53.720Z,2.83
2018-07-15T00:17:06.191Z,2.83
2018-07-15T00:17:18.616Z,2.83
2018-07-15T00:17:31.053Z,2.83
2018-07-15T00:17:43.462Z,2.83
2018-07-15T00:17:55.863Z,2.83
2018-07-15T00:18:08.359Z,2.83
2018-07-15T00:18:20.832Z,2.83
2018-07-15T00:18:33.246Z,2.83
2018-07-15T00:18:45.640Z,2.83
2018-07-15T00:18:58.061Z,2.83
2018-07-15T00:19:10.478Z,2.83
2018-07-15T00:19:22.887Z,2.83
2018-07-15T00:19:35.295Z,2.83
2018-07-15T00:19:47.704Z,2.83
2018-07-15T00:20:00.128Z,2.83
2018-07-15T00:20:12.574Z,2.83
2018-07-15T00:20:25.205Z,2.83
2018-07-15T00:20:37.886Z,2.83
2018-07-15T00:20:50.298Z,2.83
2018-07-15T00:21:02.709Z,2.83
2018-07-15T00:21:15.099Z,2.83
2018-07-15T00:21:27.505Z,2.83
2018-07-15T00:21:39.920Z,2.83
2018-07-15T00:21:52.342Z,2.83
2018-07-15T00:22:04.728Z,2.83
2018-07-15T00:22:17.150Z,2.83
2018-07-15T00:22:29.567Z,2.83
2018-07-15T00:22:42.010Z,3.58
2018-07-15T00:22:54.426Z,3.58
2018-07-15T00:23:06.847Z,3.58
2018-07-15T00:23:19.293Z,3.58
2018-07-15T00:23:31.678Z,3.58
2018-07-15T00:23:44.103Z,3.58
2018-07-15T00:23:56.497Z,3.58
2018-07-15T00:24:08.893Z,3.58
2018-07-15T00:24:21.346Z,3.58
2018-07-15T00:24:33.731Z,3.58
2018-07-15T00:24:46.124Z,3.58
2018-07-15T00:24:58.561Z,3.58
2018-07-15T00:25:11.008Z,3.58
2018-07-15T00:25:23.413Z,3.58
2018-07-15T00:25:35.843Z,3.58
2018-07-15T00:25:48.276Z,3.58
2018-07-15T00:26:00.725Z,3.58
2018-07-15T00:26:13.124Z,3.58
2018-07-15T00:26:25.533Z,3.58
2018-07-15T00:26:37.941Z,3.58
2018-07-15T00:26:50.381Z,3.58
2018-07-15T00:27:02.815Z,3.58
2018-07-15T00:27:15.239Z,3.58
2018-07-15T00:27:27.626Z,3.58
2018-07-15T00:27:40.095Z,3.58
2018-07-15T00:27:52.494Z,3.58
2018-07-15T00:28:04.936Z,3.58
2018-07-15T00:28:17.358Z,3.58
2018-07-15T00:28:29.862Z,3.58
2018-07-15T00:28:42.287Z,3.58
2018-07-15T00:28:54.706Z,3.58
2018-07-15T00:29:07.192Z,3.58
2018-07-15T00:29:19.603Z,3.58
2018-07-15T00:29:31.997Z,3.58
2018-07-15T00:29:44.411Z,3.58
2018-07-15T00:29:56.813Z,3.58
2018-07-15T00:30:09.214Z,3.58
2018-07-15T00:30:21.622Z,3.58
2018-07-15T00:30:34.016Z,3.58
2018-07-15T00:30:46.432Z,3.58
2018-07-15T00:30:58.850Z,3.58
2018-07-15T00:31:11.292Z,3.58
2018-07-15T00:31:23.842Z,3.58
2018-07-15T00:31:36.260Z,3.58
2018-07-15T00:31:48.641Z,3.58
2018-07-15T00:32:01.022Z,3.58
2018-07-15T00:32:13.417Z,3.58
2018-07-15T00:32:25.829Z,3.58
2018-07-15T00:32:38.235Z,3.58
2018-07-15T00:32:50.656Z,3.01
2018-07-15T00:33:03.074Z,3.01
2018-07-15T00:33:15.521Z,3.01
2018-07-15T00:33:27.929Z,3.01
2018-07-15T00:33:40.327Z,3.01
2018-07-15T00:33:52.713Z,3.01
2018-07-15T00:34:05.127Z,3.01
2018-07-15T00:34:17.550Z,3.01
2018-07-15T00:34:29.973Z,3.01
2018-07-15T00:34:42.447Z,3.01
2018-07-15T00:34:54.843Z,3.01
2018-07-15T00:35:07.256Z,3.01
2018-07-15T00:35:19.657Z,3.01
2018-07-15T00:35:32.068Z,3.01
2018-07-15T00:35:44.460Z,3.01
2018-07-15T00:35:56.852Z,3.01
2018-07-15T00:36:09.267Z,3.01
2018-07-15T00:36:21.712Z,3.01
2018-07-15T00:36:34.129Z,3.01
2018-07-15T00:36:46.541Z,3.01
2018-07-15T00:36:58.933Z,3.01
2018-07-15T00:37:11.348Z,3.01
2018-07-15T00:37:23.758Z,3.01
2018-07-15T00:37:36.165Z,3.01
2018-07-15T00:37:48.572Z,3.01
2018-07-15T00:38:00.978Z,3.01
2018-07-15T00:38:13.380Z,3.01
2018-07-15T00:38:25.789Z,3.01
2018-07-15T00:38:38.249Z,3.01
2018-07-15T00:38:50.690Z,3.01
2018-07-15T00:39:03.117Z,3.01
2018-07-15T00:39:15.504Z,3.01
2018-07-15T00:39:27.914Z,3.01
2018-07-15T00:39:40.313Z,3.01
2018-07-15T00:39:52.718Z,3.01
2018-07-15T00:40:05.171Z,3.01
2018-07-15T00:40:17.601Z,3.01
2018-07-15T00:40:29.984Z,3.01
2018-07-15T00:40:42.406Z,3.01
2018-07-15T00:40:54.822Z,3.01
2018-07-15T00:41:07.203Z,3.01
2018-07-15T00:41:19.690Z,3.01
2018-07-15T00:41:32.096Z,3.01
2018-07-15T00:41:44.484Z,3.01
2018-07-15T00:41:56.884Z,3.01
2018-07-15T00:42:09.302Z,3.01
2018-07-15T00:42:21.706Z,3.01
2018-07-15T00:42:34.111Z,3.01
2018-07-15T00:42:46.505Z,3.1
2018-07-15T00:42:58.917Z,3.1
2018-07-15T00:43:11.378Z,3.1
2018-07-15T00:43:23.783Z,3.1
2018-07-15T00:43:36.218Z,3.1
2018-07-15T00:43:48.641Z,3.1
2018-07-15T00:44:01.050Z,3.1
2018-07-15T00:44:13.452Z,3.1
2018-07-15T00:44:25.865Z,3.1
2018-07-15T00:44:38.268Z,3.1
2018-07-15T00:44:50.689Z,3.1
2018-07-15T00:45:03.228Z,3.1
2018-07-15T00:45:15.670Z,3.1
2018-07-15T00:45:28.071Z,3.1
2018-07-15T00:45:40.494Z,3.1
2018-07-15T00:45:52.887Z,3.1
2018-07-15T00:46:05.300Z,3.1
2018-07-15T00:46:17.709Z,3.1
2018-07-15T00:46:30.153Z,3.1
2018-07-15T00:46:42.574Z,3.1
2018-07-15T00:46:54.995Z,3.1
2018-07-15T00:47:07.419Z,3.1
2018-07-15T00:47:19.823Z,3.1
2018-07-15T00:47:32.203Z,3.1
2018-07-15T00:47:44.592Z,3.1
2018-07-15T00:47:57.008Z,3.1
2018-07-15T00:48:09.404Z,3.1
2018-07-15T00:48:21.841Z,3.1
2018-07-15T00:48:34.234Z,3.1
2018-07-15T00:48:46.956Z,3.1
2018-07-15T00:48:59.354Z,3.1
2018-07-15T00:49:11.775Z,3.1
2018-07-15T00:49:24.164Z,3.1
2018-07-15T00:49:36.629Z,3.1
2018-07-15T00:49:49.025Z,3.1
2018-07-15T00:50:01.437Z,3.1
2018-07-15T00:50:13.869Z,3.1
2018-07-15T00:50:26.262Z,3.1
2018-07-15T00:50:38.671Z,3.1
2018-07-15T00:50:51.078Z,3.1
2018-07-15T00:51:03.500Z,3.1
2018-07-15T00:51:15.914Z,3.1
2018-07-15T00:51:28.302Z,3.1
2018-07-15T00:51:40.695Z,3.1
2018-07-15T00:51:53.166Z,3.1
2018-07-15T00:52:05.586Z,3.1
2018-07-15T00:52:18.096Z,3.1
2018-07-15T00:52:30.483Z,3.1
2018-07-15T00:52:42.887Z,2.7
2018-07-15T00:52:55.298Z,2.7
2018-07-15T00:53:07.816Z,2.7
2018-07-15T00:53:20.285Z,2.7
2018-07-15T00:53:32.696Z,2.7
2018-07-15T00:53:45.122Z,2.7
2018-07-15T00:53:57.528Z,2.7
2018-07-15T00:54:09.923Z,2.7
2018-07-15T00:54:22.336Z,2.7
2018-07-15T00:54:34.739Z,2.7
2018-07-15T00:54:47.130Z,2.7
2018-07-15T00:54:59.520Z,2.7
2018-07-15T00:55:12.152Z,2.7
2018-07-15T00:55:25.536Z,2.7
2018-07-15T00:55:38.021Z,2.7
2018-07-15T00:55:50.431Z,2.7
2018-07-15T00:56:02.871Z,2.7
2018-07-15T00:56:15.269Z,2.7
2018-07-15T00:56:27.896Z,2.7
2018-07-15T00:56:40.287Z,2.7
2018-07-15T00:56:52.699Z,2.7
2018-07-15T00:57:05.156Z,2.7
2018-07-15T00:57:17.576Z,2.7
2018-07-15T00:57:29.977Z,2.7
2018-07-15T00:57:42.426Z,2.7
2018-07-15T00:57:54.834Z,2.7
2018-07-15T00:58:07.254Z,2.7
2018-07-15T00:58:19.714Z,2.7
2018-07-15T00:58:32.113Z,2.7
2018-07-15T00:58:44.524Z,2.7
2018-07-15T00:58:56.940Z,2.7
2018-07-15T00:59:09.333Z,2.7
2018-07-15T00:59:21.759Z,2.7
2018-07-15T00:59:34.291Z,2.7
2018-07-15T00:59:46.695Z,2.7
2018-07-15T00:59:59.110Z,2.7
2018-07-15T01:00:11.776Z,2.7
2018-07-15T01:00:24.224Z,2.7
2018-07-15T01:00:36.680Z,2.7
2018-07-15T01:00:49.129Z,2.7
2018-07-15T01:01:01.570Z,2.7
2018-07-15T01:01:14.004Z,2.7
2018-07-15T01:01:26.439Z,2.7
2018-07-15T01:01:38.851Z,2.7
2018-07-15T01:01:51.556Z,2.7
2018-07-15T01:02:03.963Z,2.7
2018-07-15T01:02:16.382Z,2.7
2018-07-15T01:02:28.857Z,2.7
2018-07-15T01:02:41.276Z,2.7
2018-07-15T01:02:53.729Z,2.88
2018-07-15T01:03:06.164Z,2.88
2018-07-15T01:03:18.592Z,2.88
2018-07-15T01:03:30.990Z,2.88
2018-07-15T01:03:43.402Z,2.88
2018-07-15T01:03:55.867Z,2.88
2018-07-15T01:04:08.292Z,2.88
2018-07-15T01:04:20.700Z,2.88
2018-07-15T01:04:33.115Z,2.88
2018-07-15T01:04:45.529Z,2.88
2018-07-15T01:04:57.988Z,2.88
2018-07-15T01:05:10.438Z,2.88
2018-07-15T01:05:22.833Z,2.88
2018-07-15T01:05:35.245Z,2.88
2018-07-15T01:05:47.657Z,2.88
2018-07-15T01:06:00.078Z,2.88
2018-07-15T01:06:12.507Z,2.88
2018-07-15T01:06:24.915Z,2.88
2018-07-15T01:06:37.334Z,2.88
2018-07-15T01:06:49.747Z,2.88
2018-07-15T01:07:02.230Z,2.88
2018-07-15T01:07:14.676Z,2.88
2018-07-15T01:07:27.095Z,2.88
2018-07-15T01:07:39.495Z,2.88
2018-07-15T01:07:51.896Z,2.88
2018-07-15T01:08:04.332Z,2.88
2018-07-15T01:08:16.756Z,2.88
2018-07-15T01:08:29.163Z,2.88
2018-07-15T01:08:41.586Z,2.88
2018-07-15T01:08:53.998Z,2.88
2018-07-15T01:09:06.431Z,2.88
2018-07-15T01:09:18.837Z,2.88
2018-07-15T01:09:31.264Z,2.88
2018-07-15T01:09:43.667Z,2.88
2018-07-15T01:09:56.067Z,2.88
2018-07-15T01:10:08.498Z,2.88
2018-07-15T01:10:20.953Z,2.88
2018-07-15T01:10:33.348Z,2.88
2018-07-15T01:10:45.751Z,2.88
2018-07-15T01:10:58.146Z,2.88
2018-07-15T01:11:10.566Z,2.88
2018-07-15T01:11:22.976Z,2.88
2018-07-15T01:11:35.362Z,2.88
2018-07-15T01:11:47.771Z,2.88
2018-07-15T01:12:00.196Z,2.88
2018-07-15T01:12:12.606Z,2.88
2018-07-15T01:12:25.005Z,2.88
2018-07-15T01:12:37.413Z,2.88
2018-07-15T01:12:49.829Z,2.79
2018-07-15T01:13:02.400Z,2.79
2018-07-15T01:13:14.854Z,2.79
2018-07-15T01:13:27.287Z,2.79
2018-07-15T01:13:39.686Z,2.79
2018-07-15T01:13:52.104Z,2.79
2018-07-15T01:14:04.529Z,2.79
2018-07-15T01:14:16.930Z,2.79
2018-07-15T01:14:29.385Z,2.79
2018-07-15T01:14:41.779Z,2.79
2018-07-15T01:14:54.167Z,2.79
2018-07-15T01:15:06.596Z,2.79
2018-07-15T01:15:19.006Z,2.79
2018-07-15T01:15:31.428Z,2.79
2018-07-15T01:15:43.833Z,2.79
2018-07-15T01:15:56.257Z,2.79
2018-07-15T01:16:08.659Z,2.79
2018-07-15T01:16:21.057Z,2.79
2018-07-15T01:16:33.519Z,2.79
2018-07-15T01:16:45.977Z,2.79
2018-07-15T01:16:58.382Z,2.79
2018-07-15T01:17:10.791Z,2.79
2018-07-15T01:17:23.201Z,2.79
2018-07-15T01:17:35.605Z,2.79
2018-07-15T01:17:48.012Z,2.79
2018-07-15T01:18:00.457Z,2.79
2018-07-15T01:18:12.910Z,2.79
2018-07-15T01:18:25.348Z,2.79
2018-07-15T01:18:37.740Z,2.79
2018-07-15T01:18:50.138Z,2.79
2018-07-15T01:19:02.655Z,2.79
2018-07-15T01:19:15.070Z,2.79
2018-07-15T01:19:27.502Z,2.79
2018-07-15T01:19:39.907Z,2.79
2018-07-15T01:19:52.302Z,2.79
2018-07-15T01:20:04.690Z,2.79
2018-07-15T01:20:17.088Z,2.79
2018-07-15T01:20:29.492Z,2.79
2018-07-15T01:20:42.101Z,2.79
2018-07-15T01:20:54.516Z,2.79
2018-07-15T01:21:06.907Z,2.79
2018-07-15T01:21:19.311Z,2.79
2018-07-15T01:21:31.783Z,2.79
2018-07-15T01:21:44.191Z,2.79
2018-07-15T01:21:56.597Z,2.79
2018-07-15T01:22:08.991Z,2.79
2018-07-15T01:22:21.400Z,2.79
2018-07-15T01:22:33.819Z,2.79
2018-07-15T01:22:46.226Z,3.31
2018-07-15T01:22:58.635Z,3.31
2018-07-15T01:23:11.076Z,3.31
2018-07-15T01:23:23.488Z,3.31
2018-07-15T01:23:35.907Z,3.31
2018-07-15T01:23:48.328Z,3.31
2018-07-15T01:24:00.751Z,3.31
2018-07-15T01:24:13.152Z,3.31
2018-07-15T01:24:25.566Z,3.31
2018-07-15T01:24:38.010Z,3.31
2018-07-15T01:24:50.388Z,3.31
2018-07-15T01:25:02.782Z,3.31
2018-07-15T01:25:15.187Z,3.31
2018-07-15T01:25:27.572Z,3.31
2018-07-15T01:25:40.067Z,3.31
2018-07-15T01:25:52.477Z,3.31
2018-07-15T01:26:04.867Z,3.31
2018-07-15T01:26:17.333Z,3.31
2018-07-15T01:26:29.755Z,3.31
2018-07-15T01:26:42.215Z,3.31
2018-07-15T01:26:54.607Z,3.31
2018-07-15T01:27:07.034Z,3.31
2018-07-15T01:27:19.451Z,3.31
2018-07-15T01:27:31.862Z,3.31
2018-07-15T01:27:44.255Z,3.31
2018-07-15T01:27:56.642Z,3.31
2018-07-15T01:28:09.095Z,3.31
2018-07-15T01:28:21.510Z,3.31
2018-07-15T01:28:33.912Z,3.31
2018-07-15T01:28:46.307Z,3.31
2018-07-15T01:28:58.703Z,3.31
2018-07-15T01:29:11.138Z,3.31
2018-07-15T01:29:23.526Z,3.31
2018-07-15T01:29:35.920Z,3.31
2018-07-15T01:29:48.343Z,3.31
2018-07-15T01:30:00.764Z,3.31
2018-07-15T01:30:13.228Z,3.31
2018-07-15T01:30:25.645Z,3.31
2018-07-15T01:30:38.082Z,3.31
2018-07-15T01:30:50.498Z,3.31
2018-07-15T01:31:02.907Z,3.31
2018-07-15T01:31:15.491Z,3.31
2018-07-15T01:31:27.900Z,3.31
2018-07-15T01:31:40.382Z,3.31
2018-07-15T01:31:53.003Z,3.31
2018-07-15T01:32:05.419Z,3.31
2018-07-15T01:32:17.868Z,3.31
2018-07-15T01:32:30.271Z,3.31
2018-07-15T01:32:42.676Z,3.31
2018-07-15T01:32:55.101Z,2.87
2018-07-15T01:33:07.507Z,2.87
2018-07-15T01:33:19.919Z,2.87
2018-07-15T01:33:32.351Z,2.87
2018-07-15T01:33:44.770Z,2.87
2018-07-15T01:33:57.175Z,2.87
2018-07-15T01:34:09.597Z,2.87
2018-07-15T01:34:21.982Z,2.87
2018-07-15T01:34:34.397Z,2.87
2018-07-15T01:34:46.819Z,2.87
2018-07-15T01:34:59.239Z,2.87
2018-07-15T01:35:11.670Z,2.87
2018-07-15T01:35:24.078Z,2.87
2018-07-15T01:35:36.476Z,2.87
2018-07-15T01:35:48.875Z,2.87
2018-07-15T01:36:01.270Z,2.87
2018-07-15T01:36:13.673Z,2.87
2018-07-15T01:36:26.099Z,2.87
2018-07-15T01:36:38.530Z,2.87
2018-07-15T01:36:50.943Z,2.87
2018-07-15T01:37:03.385Z,2.87
2018-07-15T01:37:15.785Z,2.87
2018-07-15T01:37:28.210Z,2.87
2018-07-15T01:37:40.608Z,2.87
2018-07-15T01:37:53.018Z,2.87
2018-07-15T01:38:05.413Z,2.87
2018-07-15T01:38:17.823Z,2.87
2018-07-15T01:38:30.321Z,2.87
2018-07-15T01:38:42.714Z,2.87
2018-07-15T01:38:55.114Z,2.87
2018-07-15T01:39:07.542Z,2.87
2018-07-15T01:39:20.001Z,2.87
2018-07-15T01:39:32.412Z,2.87
2018-07-15T01:39:44.943Z,2.87
2018-07-15T01:39:57.351Z,2.87
2018-07-15T01:40:09.758Z,2.87
2018-07-15T01:40:22.160Z,2.87
2018-07-15T01:40:34.576Z,2.87
2018-07-15T01:40:46.971Z,2.87
2018-07-15T01:40:59.362Z,2.87
2018-07-15T01:41:11.758Z,2.87
2018-07-15T01:41:24.142Z,2.87
2018-07-15T01:41:36.550Z,2.87
2018-07-15T01:41:49.024Z,2.87
2018-07-15T01:42:01.435Z,2.87
2018-07-15T01:42:13.859Z,2.87
2018-07-15T01:42:26.268Z,2.87
2018-07-15T01:42:38.699Z,2.87
2018-07-15T01:42:51.116Z,4.05
2018-07-15T01:43:03.554Z,4.05
2018-07-15T01:43:15.967Z,4.05
2018-07-15T01:43:28.403Z,4.05
2018-07-15T01:43:40.793Z,4.05
2018-07-15T01:43:53.188Z,4.05
2018-07-15T01:44:05.599Z,4.05
2018-07-15T01:44:18.013Z,4.05
2018-07-15T01:44:30.412Z,4.05
2018-07-15T01:44:42.898Z,4.05
2018-07-15T01:44:55.440Z,4.05
2018-07-15T01:45:07.862Z,4.05
2018-07-15T01:45:20.294Z,4.05
2018-07-15T01:45:32.695Z,4.05
2018-07-15T01:45:45.098Z,4.05
2018-07-15T01:45:57.496Z,4.05
2018-07-15T01:46:09.919Z,4.05
2018-07-15T01:46:22.336Z,4.05
2018-07-15T01:46:34.741Z,4.05
2018-07-15T01:46:47.143Z,4.05
2018-07-15T01:46:59.552Z,4.05
2018-07-15T01:47:11.956Z,4.05
2018-07-15T01:47:24.368Z,4.05
2018-07-15T01:47:36.793Z,4.05
2018-07-15T01:47:49.196Z,4.05
2018-07-15T01:48:01.617Z,4.05
2018-07-15T01:48:14.003Z,4.05
2018-07-15T01:48:26.410Z,4.05
2018-07-15T01:48:38.817Z,4.05
2018-07-15T01:48:51.369Z,4.05
2018-07-15T01:49:03.802Z,4.05
2018-07-15T01:49:16.239Z,4.05
2018-07-15T01:49:28.683Z,4.05
2018-07-15T01:49:41.091Z,4.05
2018-07-15T01:49:53.474Z,4.05
2018-07-15T01:50:05.932Z,4.05
2018-07-15T01:50:18.366Z,4.05
2018-07-15T01:50:30.855Z,4.05
2018-07-15T01:50:43.284Z,4.05
2018-07-15T01:50:55.683Z,4.05
2018-07-15T01:51:08.128Z,4.05
2018-07-15T01:51:20.552Z,4.05
2018-07-15T01:51:32.977Z,4.05
2018-07-15T01:51:45.389Z,4.05
2018-07-15T01:51:57.866Z,4.05
2018-07-15T01:52:10.268Z,4.05
2018-07-15T01:52:22.683Z,4.05
2018-07-15T01:52:35.084Z,4.05
2018-07-15T01:52:47.544Z,3.1
2018-07-15T01:52:59.969Z,3.1
2018-07-15T01:53:12.870Z,3.1
2018-07-15T01:53:25.259Z,3.1
2018-07-15T01:53:37.668Z,3.1
2018-07-15T01:53:50.063Z,3.1
2018-07-15T01:54:02.456Z,3.1
2018-07-15T01:54:14.868Z,3.1
2018-07-15T01:54:27.312Z,3.1
2018-07-15T01:54:39.752Z,3.1
2018-07-15T01:54:52.171Z,3.1
2018-07-15T01:55:04.573Z,3.1
2018-07-15T01:55:17.022Z,3.1
2018-07-15T01:55:29.466Z,3.1
2018-07-15T01:55:41.885Z,3.1
2018-07-15T01:55:54.284Z,3.1
2018-07-15T01:56:06.712Z,3.1
2018-07-15T01:56:19.105Z,3.1
2018-07-15T01:56:31.500Z,3.1
2018-07-15T01:56:43.902Z,3.1
2018-07-15T01:56:56.284Z,3.1
2018-07-15T01:57:08.685Z,3.1
2018-07-15T01:57:21.083Z,3.1
2018-07-15T01:57:33.479Z,3.1
2018-07-15T01:57:45.898Z,3.1
2018-07-15T01:57:58.320Z,3.1
2018-07-15T01:58:10.753Z,3.1
2018-07-15T01:58:23.178Z,3.1
2018-07-15T01:58:35.608Z,3.1
2018-07-15T01:58:48.026Z,3.1
2018-07-15T01:59:00.452Z,3.1
2018-07-15T01:59:12.904Z,3.1
2018-07-15T01:59:25.343Z,3.1
2018-07-15T01:59:37.762Z,3.1
2018-07-15T01:59:50.217Z,3.1
2018-07-15T02:00:02.623Z,3.1
2018-07-15T02:00:15.336Z,3.1
2018-07-15T02:00:27.771Z,3.1
2018-07-15T02:00:40.211Z,3.1
2018-07-15T02:00:52.641Z,3.1
2018-07-15T02:01:05.067Z,3.1
2018-07-15T02:01:17.472Z,3.1
2018-07-15T02:01:29.911Z,3.1
2018-07-15T02:01:42.337Z,3.1
2018-07-15T02:01:54.831Z,3.1
2018-07-15T02:02:07.289Z,3.1
2018-07-15T02:02:19.723Z,3.1
2018-07-15T02:02:32.134Z,3.1
2018-07-15T02:02:44.533Z,3.1
2018-07-15T02:02:56.935Z,4.58
2018-07-15T02:03:09.360Z,4.58
2018-07-15T02:03:21.818Z,4.58
2018-07-15T02:03:34.209Z,4.58
2018-07-15T02:03:46.631Z,4.58
2018-07-15T02:03:59.035Z,4.58
2018-07-15T02:04:11.425Z,4.58
2018-07-15T02:04:23.819Z,4.58
2018-07-15T02:04:36.228Z,4.58
2018-07-15T02:04:48.639Z,4.58
2018-07-15T02:05:01.044Z,4.58
2018-07-15T02:05:13.606Z,4.58
2018-07-15T02:05:26.047Z,4.58
2018-07-15T02:05:38.438Z,4.58
2018-07-15T02:05:50.850Z,4.58
2018-07-15T02:06:03.279Z,4.58
2018-07-15T02:06:15.717Z,4.58
2018-07-15T02:06:28.120Z,4.58
2018-07-15T02:06:40.538Z,4.58
2018-07-15T02:06:52.932Z,4.58
2018-07-15T02:07:05.343Z,4.58
2018-07-15T02:07:17.738Z,4.58
2018-07-15T02:07:30.129Z,4.58
2018-07-15T02:07:42.531Z,4.58
2018-07-15T02:07:54.959Z,4.58
2018-07-15T02:08:07.402Z,4.58
2018-07-15T02:08:19.827Z,4.58
2018-07-15T02:08:32.204Z,4.58
2018-07-15T02:08:44.602Z,4.58
2018-07-15T02:08:57.013Z,4.58
2018-07-15T02:09:09.430Z,4.58
2018-07-15T02:09:21.828Z,4.58
2018-07-15T02:09:34.248Z,4.58
2018-07-15T02:09:46.651Z,4.58
2018-07-15T02:09:59.030Z,4.58
2018-07-15T02:10:12.054Z,4.58
2018-07-15T02:10:24.461Z,4.58
2018-07-15T02:10:36.885Z,4.58
2018-07-15T02:10:49.296Z,4.58
2018-07-15T02:11:01.698Z,4.58
2018-07-15T02:11:14.151Z,4.58
2018-07-15T02:11:26.540Z,4.58
2018-07-15T02:11:38.928Z,4.58
2018-07-15T02:11:51.341Z,4.58
2018-07-15T02:12:03.752Z,4.58
2018-07-15T02:12:16.144Z,4.58
2018-07-15T02:12:28.599Z,4.58
2018-07-15T02:12:41.073Z,4.58
2018-07-15T02:12:53.486Z,2.71
2018-07-15T02:13:06.019Z,2.71
2018-07-15T02:13:18.465Z,2.71
2018-07-15T02:13:30.908Z,2.71
2018-07-15T02:13:43.307Z,2.71
2018-07-15T02:13:55.851Z,2.71
2018-07-15T02:14:08.290Z,2.71
2018-07-15T02:14:20.705Z,2.71
2018-07-15T02:14:33.135Z,2.71
2018-07-15T02:14:45.572Z,2.71
2018-07-15T02:14:57.989Z,2.71
2018-07-15T02:15:10.420Z,2.71
2018-07-15T02:15:22.850Z,2.71
2018-07-15T02:15:35.296Z,2.71
2018-07-15T02:15:47.703Z,2.71
2018-07-15T02:16:00.102Z,2.71
2018-07-15T02:16:12.508Z,2.71
2018-07-15T02:16:24.936Z,2.71
2018-07-15T02:16:37.332Z,2.71
2018-07-15T02:16:49.731Z,2.71
2018-07-15T02:17:02.152Z,2.71
2018-07-15T02:17:14.571Z,2.71
2018-07-15T02:17:26.985Z,2.71
2018-07-15T02:17:39.367Z,2.71
2018-07-15T02:17:51.768Z,2.71
2018-07-15T02:18:04.190Z,2.71
2018-07-15T02:18:16.592Z,2.71
2018-07-15T02:18:28.990Z,2.71
2018-07-15T02:18:41.383Z,2.71
2018-07-15T02:18:53.857Z,2.71
2018-07-15T02:19:06.261Z,2.71
2018-07-15T02:19:18.690Z,2.71
2018-07-15T02:19:31.092Z,2.71
2018-07-15T02:19:43.540Z,2.71
2018-07-15T02:19:55.940Z,2.71
2018-07-15T02:20:08.353Z,2.71
2018-07-15T02:20:20.769Z,2.71
2018-07-15T02:20:33.385Z,2.71
2018-07-15T02:20:45.803Z,2.71
2018-07-15T02:20:58.232Z,2.71
2018-07-15T02:21:10.645Z,2.71
2018-07-15T02:21:23.058Z,2.71
2018-07-15T02:21:35.488Z,2.71
2018-07-15T02:21:47.886Z,2.71
2018-07-15T02:22:00.283Z,2.71
2018-07-15T02:22:12.683Z,2.71
2018-07-15T02:22:25.152Z,2.71
2018-07-15T02:22:37.556Z,2.71
2018-07-15T02:22:49.966Z,2.73
2018-07-15T02:23:02.360Z,2.73
2018-07-15T02:23:14.759Z,2.73
2018-07-15T02:23:27.157Z,2.73
2018-07-15T02:23:39.568Z,2.73
2018-07-15T02:23:51.961Z,2.73
2018-07-15T02:24:04.368Z,2.73
2018-07-15T02:24:16.764Z,2.73
2018-07-15T02:24:29.165Z,2.73
2018-07-15T02:24:41.573Z,2.73
2018-07-15T02:24:53.985Z,2.73
2018-07-15T02:25:06.392Z,2.73
2018-07-15T02:25:18.784Z,2.73
2018-07-15T02:25:31.187Z,2.73
2018-07-15T02:25:43.605Z,2.73
2018-07-15T02:25:56.027Z,2.73
2018-07-15T02:26:08.431Z,2.73
2018-07-15T02:26:20.886Z,2.73
2018-07-15T02:26:33.289Z,2.73
2018-07-15T02:26:45.746Z,2.73
2018-07-15T02:26:58.155Z,2.73
2018-07-15T02:27:10.625Z,2.73
2018-07-15T02:27:23.046Z,2.73
2018-07-15T02:27:35.448Z,2.73
2018-07-15T02:27:47.874Z,2.73
2018-07-15T02:28:00.283Z,2.73
2018-07-15T02:28:12.690Z,2.73
2018-07-15T02:28:25.256Z,2.73
2018-07-15T02:28:37.651Z,2.73
2018-07-15T02:28:50.053Z,2.73
2018-07-15T02:29:02.466Z,2.73
2018-07-15T02:29:14.864Z,2.73
2018-07-15T02:29:27.320Z,2.73
2018-07-15T02:29:39.749Z,2.73
2018-07-15T02:29:52.146Z,2.73
2018-07-15T02:30:04.585Z,2.73
2018-07-15T02:30:17.022Z,2.73
2018-07-15T02:30:29.434Z,2.73
2018-07-15T02:30:41.864Z,2.73
2018-07-15T02:30:54.305Z,2.73
2018-07-15T02:31:06.715Z,2.73
2018-07-15T02:31:19.283Z,2.73
2018-07-15T02:31:31.706Z,2.73
2018-07-15T02:31:44.147Z,2.73
2018-07-15T02:31:56.784Z,2.73
2018-07-15T02:32:09.205Z,2.73
2018-07-15T02:32:21.637Z,2.73
2018-07-15T02:32:34.084Z,2.73
2018-07-15T02:32:46.535Z,2.73
2018-07-15T02:32:58.948Z,2.83
2018-07-15T02:33:11.398Z,2.83
2018-07-15T02:33:23.799Z,2.83
2018-07-15T02:33:36.218Z,2.83
2018-07-15T02:33:48.751Z,2.83
2018-07-15T02:34:01.186Z,2.83
2018-07-15T02:34:13.633Z,2.83
2018-07-15T02:34:26.075Z,2.83
2018-07-15T02:34:38.495Z,2.83
2018-07-15T02:34:50.901Z,2.83
2018-07-15T02:35:03.324Z,2.83
2018-07-15T02:35:15.796Z,2.83
2018-07-15T02:35:28.204Z,2.83
2018-07-15T02:35:40.677Z,2.83
2018-07-15T02:35:53.118Z,2.83
2018-07-15T02:36:05.539Z,2.83
2018-07-15T02:36:17.973Z,2.83
2018-07-15T02:36:30.422Z,2.83
2018-07-15T02:36:43.553Z,2.83
2018-07-15T02:36:57.252Z,2.83
2018-07-15T02:37:09.689Z,2.83
2018-07-15T02:37:22.125Z,2.83
2018-07-15T02:37:34.533Z,2.83
2018-07-15T02:37:46.993Z,2.83
2018-07-15T02:37:59.401Z,2.83
2018-07-15T02:38:11.852Z,2.83
2018-07-15T02:38:24.292Z,2.83
2018-07-15T02:38:36.704Z,2.83
2018-07-15T02:38:49.152Z,2.83
2018-07-15T02:39:01.600Z,2.83
2018-07-15T02:39:14.074Z,2.83
2018-07-15T02:39:26.504Z,2.83
2018-07-15T02:39:39.110Z,2.83
2018-07-15T02:39:51.544Z,2.83
2018-07-15T02:40:03.975Z,2.83
2018-07-15T02:40:16.413Z,2.83
2018-07-15T02:40:28.885Z,2.83
2018-07-15T02:40:41.358Z,2.83
2018-07-15T02:40:53.782Z,2.83
2018-07-15T02:41:06.209Z,2.83
2018-07-15T02:41:18.628Z,2.83
2018-07-15T02:41:31.097Z,2.83
2018-07-15T02:41:43.534Z,2.83
2018-07-15T02:41:55.955Z,2.83
2018-07-15T02:42:08.376Z,2.83
2018-07-15T02:42:20.807Z,2.83
2018-07-15T02:42:33.294Z,2.83
2018-07-15T02:42:45.708Z,2.83
2018-07-15T02:42:58.131Z,2.5
2018-07-15T02:43:10.577Z,2.5
2018-07-15T02:43:23.019Z,2.5
2018-07-15T02:43:35.438Z,2.5
2018-07-15T02:43:47.843Z,2.5
2018-07-15T02:44:00.293Z,2.5
2018-07-15T02:44:12.802Z,2.5
2018-07-15T02:44:25.239Z,2.5
2018-07-15T02:44:37.690Z,2.5
2018-07-15T02:44:50.102Z,2.5
2018-07-15T02:45:02.755Z,2.5
2018-07-15T02:45:15.161Z,2.5
2018-07-15T02:45:27.561Z,2.5
2018-07-15T02:45:39.973Z,2.5
2018-07-15T02:45:52.390Z,2.5
2018-07-15T02:46:04.911Z,2.5
2018-07-15T02:46:17.349Z,2.5
2018-07-15T02:46:29.754Z,2.5